Terminal Aerodrome Forecast
Issued by NWS

Current Version | Previous Version | Graphics & Text | Print | Product List | Glossary On
Versions: 1 2 3 4 5 6 7 8 9 10 11 12 13 14
417
FTUS41 KPBZ 220938 AAA
TAFHLG
TAF AMD
KHLG 220938Z 2210/2306 18005KT 3SM BR SCT035 BKN060
     FM221300 20004KT P6SM BKN050=

USA.gov is the U.S. government's official web portal to all federal, state and local government web resources and services.